createdAt,value
2023-08-01T00:01:16.530Z,15.50
2023-08-01T00:03:43.275Z,15.49
2023-08-01T00:06:09.851Z,15.45
2023-08-01T00:08:36.386Z,15.44
2023-08-01T00:11:02.935Z,15.44
2023-08-01T00:13:29.469Z,15.40
2023-08-01T00:16:06.762Z,15.35
2023-08-01T00:18:34.667Z,15.30
2023-08-01T00:21:01.247Z,15.32
2023-08-01T00:23:27.812Z,15.31
2023-08-01T00:25:54.739Z,15.33
2023-08-01T00:28:23.681Z,15.36
2023-08-01T00:30:50.295Z,15.34
2023-08-01T00:33:16.864Z,15.34
2023-08-01T00:35:43.531Z,15.32
2023-08-01T00:38:10.029Z,15.29
2023-08-01T00:40:36.610Z,15.28
2023-08-01T00:43:03.173Z,15.24
2023-08-01T00:45:31.156Z,15.19
2023-08-01T00:47:57.863Z,15.14
2023-08-01T00:50:24.639Z,15.10
2023-08-01T00:52:53.156Z,15.05
2023-08-01T00:55:20.406Z,15.01
2023-08-01T00:57:47.422Z,14.96
2023-08-01T01:00:14.671Z,14.93
2023-08-01T01:02:41.820Z,14.89
2023-08-01T01:05:08.693Z,14.88
2023-08-01T01:07:36.027Z,14.86
2023-08-01T01:10:03.935Z,14.83
2023-08-01T01:12:30.473Z,14.80
2023-08-01T01:14:56.991Z,14.77
2023-08-01T01:17:23.556Z,14.75
2023-08-01T01:19:50.893Z,14.73
2023-08-01T01:22:17.971Z,14.68
2023-08-01T01:24:46.324Z,14.66
2023-08-01T01:27:14.061Z,14.62
2023-08-01T01:29:42.064Z,14.60
2023-08-01T01:32:08.941Z,14.58
2023-08-01T01:34:35.509Z,14.57
2023-08-01T01:37:02.031Z,14.52
2023-08-01T01:39:28.552Z,14.53
2023-08-01T01:41:55.154Z,14.52
2023-08-01T01:44:21.798Z,14.47
2023-08-01T01:46:50.677Z,14.47
2023-08-01T01:49:17.388Z,14.43
2023-08-01T01:51:43.941Z,14.43
2023-08-01T01:54:10.514Z,14.40
2023-08-01T01:56:37.306Z,14.37
2023-08-01T01:59:03.997Z,14.35
2023-08-01T02:01:30.613Z,14.34
2023-08-01T02:03:57.167Z,14.33
2023-08-01T02:06:23.628Z,14.33
2023-08-01T02:08:50.173Z,14.31
2023-08-01T02:11:16.832Z,14.30
2023-08-01T02:13:43.466Z,14.29
2023-08-01T02:16:10.047Z,14.26
2023-08-01T02:18:36.635Z,14.24
2023-08-01T02:21:03.301Z,14.22
2023-08-01T02:23:30.157Z,14.22
2023-08-01T02:25:56.803Z,14.23
2023-08-01T02:28:23.514Z,14.23
2023-08-01T02:30:51.784Z,14.26
2023-08-01T02:33:18.432Z,14.26
2023-08-01T02:35:45.016Z,14.29
2023-08-01T02:38:12.626Z,14.34
2023-08-01T02:40:39.152Z,14.36
2023-08-01T02:43:05.702Z,14.40
2023-08-01T02:45:32.247Z,14.41
2023-08-01T02:47:58.862Z,14.43
2023-08-01T02:50:26.107Z,14.46
2023-08-01T02:52:52.700Z,14.46
2023-08-01T02:55:19.371Z,14.50
2023-08-01T02:57:45.895Z,14.48
2023-08-01T03:00:12.726Z,14.50
2023-08-01T03:02:40.637Z,14.51
2023-08-01T03:05:08.970Z,14.50
2023-08-01T03:07:35.554Z,14.47
2023-08-01T03:10:03.261Z,14.48
2023-08-01T03:12:29.878Z,14.51
2023-08-01T03:14:56.392Z,14.53
2023-08-01T03:17:22.953Z,14.51
2023-08-01T03:19:50.150Z,14.51
2023-08-01T03:22:17.761Z,14.53
2023-08-01T03:24:44.505Z,14.53
2023-08-01T03:27:11.092Z,14.55
2023-08-01T03:29:37.735Z,14.52
2023-08-01T03:32:04.726Z,14.52
2023-08-01T03:34:31.323Z,14.49
2023-08-01T03:36:58.975Z,14.48
2023-08-01T03:39:25.559Z,14.45
2023-08-01T03:41:52.122Z,14.42
2023-08-01T03:44:20.070Z,14.44
2023-08-01T03:46:48.818Z,14.45
2023-08-01T03:49:15.398Z,14.43
2023-08-01T03:51:41.976Z,14.41
2023-08-01T03:54:13.865Z,14.38
2023-08-01T03:56:44.179Z,14.39
2023-08-01T03:59:12.424Z,14.37
2023-08-01T04:01:39.002Z,14.38
2023-08-01T04:04:05.859Z,14.37
2023-08-01T04:06:32.462Z,14.38
2023-08-01T04:09:00.950Z,14.37
2023-08-01T04:11:28.182Z,14.40
2023-08-01T04:13:54.716Z,14.38
2023-08-01T04:16:21.284Z,14.37
2023-08-01T04:18:47.802Z,14.37
2023-08-01T04:21:15.689Z,14.37
2023-08-01T04:23:42.437Z,14.34
2023-08-01T04:26:09.221Z,14.35
2023-08-01T04:28:36.041Z,14.34
2023-08-01T04:31:02.957Z,14.34
2023-08-01T04:33:29.627Z,14.33
2023-08-01T04:35:56.207Z,14.32
2023-08-01T04:38:22.737Z,14.32
2023-08-01T04:40:49.245Z,14.32
2023-08-01T04:43:15.797Z,14.33
2023-08-01T04:45:42.360Z,14.31
2023-08-01T04:48:08.907Z,14.31
2023-08-01T04:50:35.435Z,14.34
2023-08-01T04:53:02.014Z,14.39
2023-08-01T04:55:28.869Z,14.45
2023-08-01T04:57:55.351Z,14.47
2023-08-01T05:00:21.896Z,14.48
2023-08-01T05:02:49.013Z,14.50
2023-08-01T05:05:17.191Z,14.55
2023-08-01T05:07:43.797Z,14.65
2023-08-01T05:10:11.086Z,14.75
2023-08-01T05:12:37.714Z,14.86
2023-08-01T05:15:04.723Z,14.95
2023-08-01T05:17:31.522Z,14.98
2023-08-01T05:19:58.117Z,15.04
2023-08-01T05:22:24.720Z,15.05
2023-08-01T05:24:51.177Z,15.05
2023-08-01T05:27:17.758Z,15.06
2023-08-01T05:29:44.358Z,15.05
2023-08-01T05:32:10.851Z,15.05
2023-08-01T05:34:37.394Z,15.06
2023-08-01T05:37:04.167Z,15.05
2023-08-01T05:39:30.642Z,15.07
2023-08-01T05:41:57.199Z,15.07
2023-08-01T05:44:23.885Z,15.12
2023-08-01T05:46:50.444Z,15.16
2023-08-01T05:49:17.079Z,15.23
2023-08-01T05:51:43.652Z,15.35
2023-08-01T05:54:10.201Z,15.37
2023-08-01T05:56:36.892Z,15.38
2023-08-01T05:59:04.773Z,15.37
2023-08-01T06:01:31.486Z,15.41
2023-08-01T06:04:00.521Z,15.43
2023-08-01T06:06:27.188Z,15.49
2023-08-01T06:08:54.247Z,15.53
2023-08-01T06:11:20.769Z,15.63
2023-08-01T06:13:47.273Z,15.81
2023-08-01T06:16:13.924Z,15.92
2023-08-01T06:18:40.431Z,16.20
2023-08-01T06:21:06.935Z,16.66
2023-08-01T06:23:33.550Z,16.82
2023-08-01T06:26:01.334Z,16.69
2023-08-01T06:28:27.877Z,16.73
2023-08-01T06:30:54.749Z,16.70
2023-08-01T06:33:21.280Z,16.70
2023-08-01T06:35:48.232Z,16.65
2023-08-01T06:38:14.818Z,16.76
2023-08-01T06:40:41.392Z,17.06
2023-08-01T06:43:08.098Z,17.22
2023-08-01T06:45:34.610Z,17.16
2023-08-01T06:48:01.246Z,17.19
2023-08-01T06:50:27.903Z,17.50
2023-08-01T06:52:55.701Z,17.65
2023-08-01T06:55:22.318Z,17.88
2023-08-01T06:57:48.884Z,18.58
2023-08-01T07:00:15.737Z,19.17
2023-08-01T07:02:42.508Z,19.45
2023-08-01T07:05:09.312Z,19.55
2023-08-01T07:07:35.930Z,19.85
2023-08-01T07:10:02.617Z,19.98
2023-08-01T07:12:29.163Z,19.68
2023-08-01T07:14:55.677Z,19.13
2023-08-01T07:17:22.237Z,19.54
2023-08-01T07:19:48.799Z,20.20
2023-08-01T07:22:15.365Z,20.40
2023-08-01T07:24:41.843Z,21.02
2023-08-01T07:27:08.401Z,21.03
2023-08-01T07:29:34.893Z,20.27
2023-08-01T07:32:01.507Z,19.44
2023-08-01T07:34:28.664Z,18.87
2023-08-01T07:36:55.236Z,18.34
2023-08-01T07:39:21.838Z,18.18
2023-08-01T07:41:49.753Z,18.15
2023-08-01T07:44:16.242Z,18.03
2023-08-01T07:46:42.894Z,18.07
2023-08-01T07:49:09.701Z,18.13
2023-08-01T07:51:37.299Z,18.04
2023-08-01T07:54:04.030Z,17.83
2023-08-01T07:56:30.593Z,17.71
2023-08-01T07:58:57.127Z,17.57
2023-08-01T08:01:24.153Z,17.53
2023-08-01T08:03:50.875Z,17.62
2023-08-01T08:06:17.537Z,18.21
2023-08-01T08:08:44.048Z,18.95
2023-08-01T08:11:10.703Z,19.73
2023-08-01T08:13:37.268Z,19.97
2023-08-01T08:16:05.598Z,20.44
2023-08-01T08:18:32.153Z,20.32
2023-08-01T08:20:58.720Z,20.13
2023-08-01T08:23:25.230Z,20.03
2023-08-01T08:25:51.865Z,19.85
2023-08-01T08:28:30.242Z,19.74
2023-08-01T08:30:56.930Z,19.72
2023-08-01T08:33:23.666Z,20.26
2023-08-01T08:35:50.794Z,20.37
2023-08-01T08:38:19.923Z,20.17
2023-08-01T08:41:12.134Z,19.90
2023-08-01T08:43:40.223Z,20.21
2023-08-01T08:46:07.409Z,20.75
2023-08-01T08:48:34.910Z,21.34
2023-08-01T08:51:02.710Z,21.67
2023-08-01T08:53:31.299Z,21.90
2023-08-01T08:55:58.831Z,21.95
2023-08-01T08:58:25.708Z,21.77
2023-08-01T09:00:52.524Z,21.32
2023-08-01T09:03:20.377Z,21.09
2023-08-01T09:05:51.308Z,21.44
2023-08-01T09:08:22.901Z,21.98
2023-08-01T09:10:49.605Z,22.08
2023-08-01T09:13:16.516Z,21.71
2023-08-01T09:15:46.634Z,21.29
2023-08-01T09:18:13.249Z,20.79
2023-08-01T09:20:44.720Z,20.64
2023-08-01T09:23:12.613Z,20.44
2023-08-01T09:25:39.765Z,20.34
2023-08-01T09:28:25.676Z,20.63
2023-08-01T09:30:56.476Z,20.61
2023-08-01T09:33:23.747Z,20.54
2023-08-01T09:35:51.762Z,21.04
2023-08-01T09:38:18.502Z,21.49
2023-08-01T09:40:46.340Z,21.62
2023-08-01T09:43:14.435Z,21.34
2023-08-01T09:45:55.207Z,20.73
2023-08-01T09:48:24.984Z,20.28
2023-08-01T09:50:51.463Z,20.00
2023-08-01T09:53:17.957Z,20.09
2023-08-01T09:55:47.625Z,20.58
2023-08-01T09:58:17.920Z,20.82
2023-08-01T10:00:45.108Z,21.01
2023-08-01T10:03:11.844Z,21.38
2023-08-01T10:05:40.995Z,21.49
2023-08-01T10:08:07.893Z,21.57
2023-08-01T10:10:34.883Z,21.80
2023-08-01T10:13:02.365Z,22.17
2023-08-01T10:15:30.550Z,22.65
2023-08-01T10:17:58.582Z,22.45
2023-08-01T10:20:26.121Z,22.15
2023-08-01T10:22:53.849Z,21.58
2023-08-01T10:25:22.784Z,21.17
2023-08-01T10:28:03.331Z,20.95
2023-08-01T10:30:30.636Z,21.21
2023-08-01T10:32:58.831Z,21.84
2023-08-01T10:35:55.798Z,22.59
2023-08-01T10:38:22.333Z,22.88
2023-08-01T10:40:48.895Z,22.89
2023-08-01T10:43:22.692Z,22.53
2023-08-01T10:45:49.907Z,22.00
2023-08-01T10:48:16.499Z,21.85
2023-08-01T10:50:43.035Z,22.29
2023-08-01T10:53:10.910Z,22.94
2023-08-01T10:55:46.150Z,23.61
2023-08-01T10:58:13.276Z,24.01
2023-08-01T11:00:40.102Z,24.08
2023-08-01T11:03:07.745Z,23.35
2023-08-01T11:05:34.533Z,23.08
2023-08-01T11:08:03.897Z,22.88
2023-08-01T11:10:32.290Z,22.91
2023-08-01T11:13:00.593Z,23.37
2023-08-01T11:15:27.446Z,23.21
2023-08-01T11:17:56.700Z,22.87
2023-08-01T11:20:25.629Z,22.52
2023-08-01T11:22:52.096Z,22.30
2023-08-01T11:25:18.797Z,22.22
2023-08-01T11:27:45.486Z,22.44
2023-08-01T11:30:12.457Z,23.20
2023-08-01T11:32:39.922Z,23.72
2023-08-01T11:35:07.109Z,23.45
2023-08-01T11:37:34.115Z,23.32
2023-08-01T11:40:01.515Z,23.59
2023-08-01T11:42:33.573Z,23.98
2023-08-01T11:45:13.098Z,24.09
2023-08-01T11:47:46.515Z,23.79
2023-08-01T11:50:13.301Z,23.79
2023-08-01T11:52:40.118Z,24.23
2023-08-01T11:55:06.949Z,24.71
2023-08-01T11:57:33.574Z,24.85
2023-08-01T12:00:00.172Z,24.84
2023-08-01T12:02:28.604Z,24.73
2023-08-01T12:04:55.752Z,24.23
2023-08-01T12:07:25.608Z,23.98
2023-08-01T12:09:59.060Z,23.96
2023-08-01T12:12:28.232Z,23.76
2023-08-01T12:14:55.549Z,23.48
2023-08-01T12:17:24.307Z,22.99
2023-08-01T12:19:50.981Z,22.70
2023-08-01T12:22:17.634Z,22.51
2023-08-01T12:24:44.216Z,22.47
2023-08-01T12:27:11.396Z,22.42
2023-08-01T12:29:38.037Z,22.20
2023-08-01T12:32:05.157Z,22.09
2023-08-01T12:34:32.096Z,21.96
2023-08-01T12:36:58.667Z,22.05
2023-08-01T12:39:27.894Z,21.82
2023-08-01T12:41:55.144Z,21.69
2023-08-01T12:44:22.266Z,21.73
2023-08-01T12:46:49.612Z,22.19
2023-08-01T12:49:16.302Z,22.63
2023-08-01T12:51:42.928Z,22.94
2023-08-01T12:54:09.597Z,23.19
2023-08-01T12:56:36.454Z,23.41
2023-08-01T12:59:03.089Z,23.37
2023-08-01T13:01:29.696Z,23.41
2023-08-01T13:03:56.324Z,23.21
2023-08-01T13:06:23.903Z,22.69
2023-08-01T13:08:50.513Z,22.40
2023-08-01T13:11:17.101Z,21.94
2023-08-01T13:13:44.017Z,21.19
2023-08-01T13:16:10.678Z,20.69
2023-08-01T13:18:38.186Z,20.59
2023-08-01T13:21:05.033Z,20.60
2023-08-01T13:23:31.642Z,20.64
2023-08-01T13:25:59.786Z,20.77
2023-08-01T13:28:26.417Z,20.86
2023-08-01T13:30:53.031Z,20.95
2023-08-01T13:33:19.552Z,21.04
2023-08-01T13:35:46.103Z,21.01
2023-08-01T13:38:14.041Z,21.31
2023-08-01T13:40:40.786Z,21.50
2023-08-01T13:43:07.321Z,21.67
2023-08-01T13:45:34.304Z,21.94
2023-08-01T13:48:01.875Z,22.15
2023-08-01T13:50:30.185Z,22.16
2023-08-01T13:52:56.862Z,21.99
2023-08-01T13:55:23.395Z,21.86
2023-08-01T13:57:49.946Z,21.91
2023-08-01T14:00:16.718Z,22.03
2023-08-01T14:02:43.504Z,21.91
2023-08-01T14:05:10.566Z,21.73
2023-08-01T14:07:44.082Z,21.52
2023-08-01T14:10:12.061Z,21.32
2023-08-01T14:12:38.594Z,21.21
2023-08-01T14:15:06.056Z,21.17
2023-08-01T14:17:32.724Z,21.21
2023-08-01T14:20:00.695Z,21.25
2023-08-01T14:22:27.476Z,21.27
2023-08-01T14:24:54.019Z,21.08
2023-08-01T14:27:20.893Z,20.79
2023-08-01T14:29:47.817Z,20.71
2023-08-01T14:32:15.200Z,20.54
2023-08-01T14:34:41.811Z,20.38
2023-08-01T14:37:08.378Z,20.33
2023-08-01T14:39:35.246Z,20.42
2023-08-01T14:42:05.296Z,20.49
2023-08-01T14:44:32.437Z,20.79
2023-08-01T14:47:00.213Z,20.99
2023-08-01T14:49:30.086Z,21.13
2023-08-01T14:51:56.536Z,21.24
2023-08-01T14:54:33.943Z,20.93
2023-08-01T14:57:07.079Z,20.56
2023-08-01T14:59:33.843Z,20.51
2023-08-01T15:02:01.601Z,20.54
2023-08-01T15:04:28.456Z,20.43
2023-08-01T15:06:55.415Z,20.30
2023-08-01T15:09:23.375Z,20.07
2023-08-01T15:11:49.966Z,19.78
2023-08-01T15:14:16.559Z,19.69
2023-08-01T15:16:43.766Z,19.67
2023-08-01T15:19:10.706Z,19.60
2023-08-01T15:21:37.331Z,19.44
2023-08-01T15:24:04.074Z,19.44
2023-08-01T15:26:30.590Z,19.37
2023-08-01T15:28:57.261Z,19.30
2023-08-01T15:31:23.804Z,19.20
2023-08-01T15:33:50.424Z,19.13
2023-08-01T15:36:16.994Z,19.07
2023-08-01T15:38:43.661Z,18.89
2023-08-01T15:41:10.498Z,18.73
2023-08-01T15:43:41.511Z,18.59
2023-08-01T15:46:09.949Z,18.36
2023-08-01T15:48:38.006Z,18.25
2023-08-01T15:51:05.940Z,18.13
2023-08-01T15:53:33.172Z,18.08
2023-08-01T15:56:03.463Z,18.09
2023-08-01T15:58:30.319Z,18.22
2023-08-01T16:00:58.460Z,18.26
2023-08-01T16:03:25.485Z,18.26
2023-08-01T16:05:53.615Z,18.45
2023-08-01T16:08:20.460Z,18.57
2023-08-01T16:10:49.749Z,18.64
2023-08-01T16:13:16.353Z,18.72
2023-08-01T16:15:43.860Z,18.79
2023-08-01T16:18:10.714Z,18.81
2023-08-01T16:20:37.362Z,18.58
2023-08-01T16:23:04.172Z,18.57
2023-08-01T16:25:30.833Z,18.57
2023-08-01T16:27:57.428Z,18.58
2023-08-01T16:30:24.188Z,18.60
2023-08-01T16:32:51.813Z,18.50
2023-08-01T16:35:19.244Z,18.57
2023-08-01T16:37:45.955Z,18.61
2023-08-01T16:40:12.865Z,18.59
2023-08-01T16:42:39.499Z,18.56
2023-08-01T16:45:11.234Z,18.50
2023-08-01T16:47:42.481Z,18.49
2023-08-01T16:50:20.387Z,18.51
2023-08-01T16:52:47.555Z,18.48
2023-08-01T16:55:15.028Z,18.64
2023-08-01T16:57:41.565Z,18.73
2023-08-01T17:00:10.079Z,18.78
2023-08-01T17:02:37.569Z,18.79
2023-08-01T17:05:05.197Z,18.80
2023-08-01T17:07:31.928Z,18.75
2023-08-01T17:10:03.729Z,18.81
2023-08-01T17:12:30.420Z,18.78
2023-08-01T17:14:57.137Z,18.77
2023-08-01T17:17:26.476Z,18.82
2023-08-01T17:19:53.291Z,18.82
2023-08-01T17:22:19.892Z,18.72
2023-08-01T17:24:46.440Z,18.64
2023-08-01T17:27:12.967Z,18.60
2023-08-01T17:29:39.622Z,18.61
2023-08-01T17:32:06.415Z,18.63
2023-08-01T17:34:33.338Z,18.53
2023-08-01T17:37:00.706Z,18.46
2023-08-01T17:39:29.167Z,18.43
2023-08-01T17:41:57.859Z,18.42
2023-08-01T17:44:25.414Z,18.42
2023-08-01T17:46:53.044Z,18.41
2023-08-01T17:49:20.061Z,18.34
2023-08-01T17:51:46.776Z,18.38
2023-08-01T17:54:13.462Z,18.43
2023-08-01T17:56:40.537Z,18.43
2023-08-01T17:59:07.741Z,18.41
2023-08-01T18:01:35.522Z,18.38
2023-08-01T18:04:02.763Z,18.38
2023-08-01T18:06:29.415Z,18.40
2023-08-01T18:08:55.961Z,18.36
2023-08-01T18:11:24.203Z,18.33
2023-08-01T18:13:50.842Z,18.32
2023-08-01T18:16:25.413Z,18.35
2023-08-01T18:18:53.558Z,18.32
2023-08-01T18:21:20.868Z,18.34
2023-08-01T18:23:47.794Z,18.37
2023-08-01T18:26:22.826Z,18.33
2023-08-01T18:28:51.194Z,18.27
2023-08-01T18:31:17.965Z,18.25
2023-08-01T18:33:44.638Z,18.23
2023-08-01T18:36:13.638Z,18.22
2023-08-01T18:38:42.012Z,18.11
2023-08-01T18:41:08.948Z,18.10
2023-08-01T18:43:37.005Z,18.10
2023-08-01T18:46:04.995Z,18.05
2023-08-01T18:48:32.237Z,18.02
2023-08-01T18:51:01.756Z,18.03
2023-08-01T18:53:29.092Z,18.00
2023-08-01T18:56:05.654Z,17.99
2023-08-01T18:58:32.326Z,17.93
2023-08-01T19:00:58.968Z,17.88
2023-08-01T19:03:26.020Z,17.88
2023-08-01T19:05:52.533Z,17.83
2023-08-01T19:08:19.252Z,17.75
2023-08-01T19:10:46.521Z,17.72
2023-08-01T19:13:13.065Z,17.70
2023-08-01T19:15:39.701Z,17.68
2023-08-01T19:18:06.502Z,17.72
2023-08-01T19:20:33.156Z,17.73
2023-08-01T19:22:59.780Z,17.63
2023-08-01T19:25:26.366Z,17.61
2023-08-01T19:27:52.969Z,17.56
2023-08-01T19:30:20.075Z,17.54
2023-08-01T19:32:46.714Z,17.52
2023-08-01T19:35:13.503Z,17.53
2023-08-01T19:37:40.100Z,17.46
2023-08-01T19:40:08.507Z,17.44
2023-08-01T19:42:35.366Z,17.41
2023-08-01T19:45:02.000Z,17.40
2023-08-01T19:47:28.765Z,17.42
2023-08-01T19:49:55.294Z,17.43
2023-08-01T19:52:21.800Z,17.43
2023-08-01T19:54:49.767Z,17.42
2023-08-01T19:57:16.249Z,17.40
2023-08-01T19:59:42.920Z,17.40
2023-08-01T20:02:09.427Z,17.42
2023-08-01T20:04:36.933Z,17.40
2023-08-01T20:07:04.259Z,17.34
2023-08-01T20:09:30.809Z,17.37
2023-08-01T20:11:57.318Z,17.37
2023-08-01T20:14:23.982Z,17.37
2023-08-01T20:16:50.657Z,17.36
2023-08-01T20:19:17.612Z,17.39
2023-08-01T20:21:44.230Z,17.36
2023-08-01T20:24:10.738Z,17.30
2023-08-01T20:26:37.251Z,17.26
2023-08-01T20:29:04.161Z,17.25
2023-08-01T20:31:30.722Z,17.24
2023-08-01T20:33:57.245Z,17.20
2023-08-01T20:36:23.870Z,17.19
2023-08-01T20:38:51.771Z,17.18
2023-08-01T20:41:18.387Z,17.14
2023-08-01T20:43:44.912Z,17.14
2023-08-01T20:46:12.947Z,17.11
2023-08-01T20:48:39.548Z,17.13
2023-08-01T20:51:06.157Z,17.13
2023-08-01T20:53:32.724Z,17.09
2023-08-01T20:55:59.349Z,17.09
2023-08-01T20:58:25.893Z,17.08
2023-08-01T21:00:59.339Z,17.07
2023-08-01T21:03:26.533Z,17.03
2023-08-01T21:05:55.252Z,17.02
2023-08-01T21:08:23.812Z,16.99
2023-08-01T21:10:50.587Z,16.93
2023-08-01T21:13:17.173Z,16.91
2023-08-01T21:15:43.824Z,16.86
2023-08-01T21:18:10.506Z,16.82
2023-08-01T21:20:38.229Z,16.81
2023-08-01T21:23:05.554Z,16.77
2023-08-01T21:25:32.793Z,16.77
2023-08-01T21:27:59.667Z,16.71
2023-08-01T21:30:26.382Z,16.67
2023-08-01T21:32:52.918Z,16.69
2023-08-01T21:35:20.645Z,16.65
2023-08-01T21:37:51.059Z,16.60
2023-08-01T21:40:18.157Z,16.55
2023-08-01T21:42:44.682Z,16.52
2023-08-01T21:45:11.928Z,16.46
2023-08-01T21:47:39.897Z,16.40
2023-08-01T21:50:07.369Z,16.36
2023-08-01T21:52:33.878Z,16.31
2023-08-01T21:55:00.450Z,16.26
2023-08-01T21:57:26.971Z,16.24
2023-08-01T21:59:53.611Z,16.20
2023-08-01T22:02:20.848Z,16.16
2023-08-01T22:04:47.684Z,16.13
2023-08-01T22:07:14.264Z,16.11
2023-08-01T22:09:40.812Z,16.09
2023-08-01T22:12:07.598Z,16.03
2023-08-01T22:14:34.190Z,16.01
2023-08-01T22:17:00.746Z,16.00
2023-08-01T22:19:27.389Z,15.95
2023-08-01T22:21:53.909Z,15.97
2023-08-01T22:24:20.445Z,15.94
2023-08-01T22:26:47.003Z,15.90
2023-08-01T22:29:14.049Z,15.84
2023-08-01T22:31:40.634Z,15.82
2023-08-01T22:34:09.483Z,15.78
2023-08-01T22:36:35.962Z,15.76
2023-08-01T22:39:02.478Z,15.75
2023-08-01T22:41:29.429Z,15.71
2023-08-01T22:43:59.531Z,15.69
2023-08-01T22:46:26.478Z,15.68
2023-08-01T22:48:53.537Z,15.62
2023-08-01T22:51:21.021Z,15.62
2023-08-01T22:53:49.339Z,15.61
2023-08-01T22:56:17.391Z,15.64
2023-08-01T22:58:44.504Z,15.66
2023-08-01T23:01:13.375Z,15.63
2023-08-01T23:03:43.498Z,15.62
2023-08-01T23:06:10.466Z,15.62
2023-08-01T23:08:37.141Z,15.57
2023-08-01T23:11:03.833Z,15.55
2023-08-01T23:13:30.494Z,15.56
2023-08-01T23:15:57.209Z,15.55
2023-08-01T23:18:24.053Z,15.53
2023-08-01T23:20:57.670Z,15.51
2023-08-01T23:23:24.234Z,15.45
2023-08-01T23:25:50.739Z,15.43
2023-08-01T23:28:17.516Z,15.43
2023-08-01T23:30:45.113Z,15.37
2023-08-01T23:33:11.869Z,15.38
2023-08-01T23:35:38.462Z,15.37
2023-08-01T23:38:04.982Z,15.33
2023-08-01T23:40:31.525Z,15.30
2023-08-01T23:42:58.040Z,15.29
2023-08-01T23:45:24.589Z,15.28
2023-08-01T23:47:51.180Z,15.24
2023-08-01T23:50:17.835Z,15.22
2023-08-01T23:52:44.576Z,15.20
2023-08-01T23:55:12.685Z,15.16
2023-08-01T23:57:39.240Z,15.15
